sensor_id;sensor_type;location;lat;lon;timestamp;temperature;humidity
24176;DHT22;12324;48.146;11.502;2024-03-02T01:13:31;6.70;99.90
24176;DHT22;12324;48.146;11.502;2024-03-02T01:15:59;5.50;99.90
24176;DHT22;12324;48.146;11.502;2024-03-02T01:18:26;5.40;99.90
24176;DHT22;12324;48.146;11.502;2024-03-02T01:20:53;5.40;99.90
24176;DHT22;12324;48.146;11.502;2024-03-02T01:23:25;5.40;99.90
24176;DHT22;12324;48.146;11.502;2024-03-02T01:25:52;5.50;99.90
24176;DHT22;12324;48.146;11.502;2024-03-02T01:28:19;5.40;99.90
24176;DHT22;12324;48.146;11.502;2024-03-02T01:30:47;5.50;99.90
24176;DHT22;12324;48.146;11.502;2024-03-02T01:33:15;5.40;99.90
24176;DHT22;12324;48.146;11.502;2024-03-02T01:35:42;5.50;99.90
24176;DHT22;12324;48.146;11.502;2024-03-02T01:38:09;5.40;99.90
24176;DHT22;12324;48.146;11.502;2024-03-02T01:40:37;5.40;99.90
24176;DHT22;12324;48.146;11.502;2024-03-02T01:43:07;5.40;99.90
24176;DHT22;12324;48.146;11.502;2024-03-02T01:45:35;5.50;99.90
24176;DHT22;12324;48.146;11.502;2024-03-02T01:48:05;5.40;99.90
24176;DHT22;12324;48.146;11.502;2024-03-02T01:50:34;5.50;99.90
24176;DHT22;12324;48.146;11.502;2024-03-02T01:53:01;5.50;99.90
24176;DHT22;12324;48.146;11.502;2024-03-02T01:55:29;5.50;99.90
24176;DHT22;12324;48.146;11.502;2024-03-02T01:57:57;5.40;99.90
24176;DHT22;12324;48.146;11.502;2024-03-02T02:00:25;5.40;99.90
24176;DHT22;12324;48.146;11.502;2024-03-02T02:02:54;5.40;99.90
24176;DHT22;12324;48.146;11.502;2024-03-02T02:05:21;5.40;99.90
24176;DHT22;12324;48.146;11.502;2024-03-02T02:07:48;5.40;99.90
24176;DHT22;12324;48.146;11.502;2024-03-02T02:10:15;5.40;99.90
24176;DHT22;12324;48.146;11.502;2024-03-02T02:12:42;5.40;99.90
24176;DHT22;12324;48.146;11.502;2024-03-02T02:15:28;5.40;99.90
24176;DHT22;12324;48.146;11.502;2024-03-02T02:17:56;5.40;99.90
24176;DHT22;12324;48.146;11.502;2024-03-02T02:20:24;5.40;99.90
24176;DHT22;12324;48.146;11.502;2024-03-02T02:23:00;5.40;99.90
24176;DHT22;12324;48.146;11.502;2024-03-02T02:25:28;5.50;99.90
24176;DHT22;12324;48.146;11.502;2024-03-02T02:27:56;5.40;99.90
24176;DHT22;12324;48.146;11.502;2024-03-02T02:30:27;5.40;99.90
24176;DHT22;12324;48.146;11.502;2024-03-02T02:32:54;5.40;99.90
24176;DHT22;12324;48.146;11.502;2024-03-02T02:35:21;5.50;99.90
24176;DHT22;12324;48.146;11.502;2024-03-02T02:37:49;5.40;99.90
24176;DHT22;12324;48.146;11.502;2024-03-02T02:40:17;5.50;99.90
24176;DHT22;12324;48.146;11.502;2024-03-02T02:42:46;5.50;99.90
24176;DHT22;12324;48.146;11.502;2024-03-02T02:45:13;5.50;99.90
24176;DHT22;12324;48.146;11.502;2024-03-02T02:47:42;5.50;99.90
24176;DHT22;12324;48.146;11.502;2024-03-02T02:50:09;5.40;99.90
24176;DHT22;12324;48.146;11.502;2024-03-02T02:52:38;5.40;99.90
24176;DHT22;12324;48.146;11.502;2024-03-02T02:55:08;5.40;99.90
24176;DHT22;12324;48.146;11.502;2024-03-02T02:57:36;5.40;99.90
24176;DHT22;12324;48.146;11.502;2024-03-02T03:00:12;5.40;99.90
24176;DHT22;12324;48.146;11.502;2024-03-02T03:02:46;5.40;99.90
24176;DHT22;12324;48.146;11.502;2024-03-02T03:05:17;5.40;99.90
24176;DHT22;12324;48.146;11.502;2024-03-02T03:07:44;5.30;99.90
24176;DHT22;12324;48.146;11.502;2024-03-02T03:10:12;5.40;99.90
24176;DHT22;12324;48.146;11.502;2024-03-02T03:12:41;5.30;99.90
24176;DHT22;12324;48.146;11.502;2024-03-02T03:15:10;5.30;99.90
24176;DHT22;12324;48.146;11.502;2024-03-02T03:17:38;5.30;99.90
24176;DHT22;12324;48.146;11.502;2024-03-02T03:20:05;5.30;99.90
24176;DHT22;12324;48.146;11.502;2024-03-02T03:22:37;5.30;99.90
24176;DHT22;12324;48.146;11.502;2024-03-02T03:25:05;5.40;99.90
24176;DHT22;12324;48.146;11.502;2024-03-02T03:27:32;5.40;99.90
24176;DHT22;12324;48.146;11.502;2024-03-02T03:29:59;5.40;99.90
24176;DHT22;12324;48.146;11.502;2024-03-02T03:32:26;5.50;99.90
24176;DHT22;12324;48.146;11.502;2024-03-02T03:34:53;5.50;99.90
24176;DHT22;12324;48.146;11.502;2024-03-02T03:37:20;5.50;99.90
24176;DHT22;12324;48.146;11.502;2024-03-02T03:39:47;5.60;99.90
24176;DHT22;12324;48.146;11.502;2024-03-02T03:42:14;5.60;99.90
24176;DHT22;12324;48.146;11.502;2024-03-02T03:44:40;5.60;99.90
24176;DHT22;12324;48.146;11.502;2024-03-02T03:47:08;5.70;99.90
24176;DHT22;12324;48.146;11.502;2024-03-02T03:49:35;5.60;99.90
24176;DHT22;12324;48.146;11.502;2024-03-02T03:52:02;5.60;99.90
24176;DHT22;12324;48.146;11.502;2024-03-02T03:54:29;5.60;99.90
24176;DHT22;12324;48.146;11.502;2024-03-02T03:56:56;5.60;99.90
24176;DHT22;12324;48.146;11.502;2024-03-02T03:59:22;5.60;99.90
24176;DHT22;12324;48.146;11.502;2024-03-02T04:01:50;5.60;99.90
24176;DHT22;12324;48.146;11.502;2024-03-02T04:04:17;5.60;99.90
24176;DHT22;12324;48.146;11.502;2024-03-02T04:06:44;5.60;99.90
24176;DHT22;12324;48.146;11.502;2024-03-02T04:09:14;5.60;99.90
24176;DHT22;12324;48.146;11.502;2024-03-02T04:11:41;5.60;99.90
24176;DHT22;12324;48.146;11.502;2024-03-02T04:14:08;5.60;99.90
24176;DHT22;12324;48.146;11.502;2024-03-02T04:16:35;5.60;99.90
24176;DHT22;12324;48.146;11.502;2024-03-02T04:19:05;5.60;99.90
24176;DHT22;12324;48.146;11.502;2024-03-02T04:21:32;5.60;99.90
24176;DHT22;12324;48.146;11.502;2024-03-02T04:23:59;5.50;99.90
24176;DHT22;12324;48.146;11.502;2024-03-02T04:26:27;5.60;99.90
24176;DHT22;12324;48.146;11.502;2024-03-02T04:28:54;5.50;99.90
24176;DHT22;12324;48.146;11.502;2024-03-02T04:31:21;5.50;99.90
24176;DHT22;12324;48.146;11.502;2024-03-02T04:33:48;5.50;99.90
24176;DHT22;12324;48.146;11.502;2024-03-02T04:36:15;5.50;99.90
24176;DHT22;12324;48.146;11.502;2024-03-02T04:38:42;5.40;99.90
24176;DHT22;12324;48.146;11.502;2024-03-02T04:41:09;5.40;99.90
24176;DHT22;12324;48.146;11.502;2024-03-02T04:43:36;5.40;99.90
24176;DHT22;12324;48.146;11.502;2024-03-02T04:46:03;5.40;99.90
24176;DHT22;12324;48.146;11.502;2024-03-02T04:48:34;5.40;99.90
24176;DHT22;12324;48.146;11.502;2024-03-02T04:51:01;5.40;99.90
24176;DHT22;12324;48.146;11.502;2024-03-02T04:53:29;5.40;99.90
24176;DHT22;12324;48.146;11.502;2024-03-02T04:55:56;5.50;99.90
24176;DHT22;12324;48.146;11.502;2024-03-02T04:58:35;5.50;99.90
24176;DHT22;12324;48.146;11.502;2024-03-02T05:01:01;5.50;99.90
24176;DHT22;12324;48.146;11.502;2024-03-02T05:03:32;5.40;99.90
24176;DHT22;12324;48.146;11.502;2024-03-02T05:06:01;5.50;99.90
24176;DHT22;12324;48.146;11.502;2024-03-02T05:08:28;5.50;99.90
24176;DHT22;12324;48.146;11.502;2024-03-02T05:10:55;5.40;99.90
24176;DHT22;12324;48.146;11.502;2024-03-02T05:13:42;5.40;99.90
24176;DHT22;12324;48.146;11.502;2024-03-02T05:16:09;5.50;99.90
24176;DHT22;12324;48.146;11.502;2024-03-02T05:18:37;5.40;99.90
24176;DHT22;12324;48.146;11.502;2024-03-02T05:21:04;5.40;99.90
24176;DHT22;12324;48.146;11.502;2024-03-02T05:23:31;5.40;99.90
24176;DHT22;12324;48.146;11.502;2024-03-02T05:25:58;5.40;99.90
24176;DHT22;12324;48.146;11.502;2024-03-02T05:28:25;5.50;99.90
24176;DHT22;12324;48.146;11.502;2024-03-02T05:30:52;5.40;99.90
24176;DHT22;12324;48.146;11.502;2024-03-02T05:33:19;5.40;99.90
24176;DHT22;12324;48.146;11.502;2024-03-02T05:35:49;5.40;99.90
24176;DHT22;12324;48.146;11.502;2024-03-02T05:38:19;5.40;99.90
24176;DHT22;12324;48.146;11.502;2024-03-02T05:40:45;5.40;99.90
24176;DHT22;12324;48.146;11.502;2024-03-02T05:43:12;5.40;99.90
24176;DHT22;12324;48.146;11.502;2024-03-02T05:45:39;5.40;99.90
24176;DHT22;12324;48.146;11.502;2024-03-02T05:48:07;5.40;99.90
24176;DHT22;12324;48.146;11.502;2024-03-02T05:50:35;5.40;99.90
24176;DHT22;12324;48.146;11.502;2024-03-02T05:53:03;5.40;99.90
24176;DHT22;12324;48.146;11.502;2024-03-02T05:55:30;5.30;99.90
24176;DHT22;12324;48.146;11.502;2024-03-02T05:57:57;5.40;99.90
24176;DHT22;12324;48.146;11.502;2024-03-02T06:00:33;5.30;99.90
24176;DHT22;12324;48.146;11.502;2024-03-02T06:03:00;5.30;99.90
24176;DHT22;12324;48.146;11.502;2024-03-02T06:05:27;5.40;99.90
24176;DHT22;12324;48.146;11.502;2024-03-02T06:07:54;5.40;99.90
24176;DHT22;12324;48.146;11.502;2024-03-02T06:10:21;5.40;99.90
24176;DHT22;12324;48.146;11.502;2024-03-02T06:12:48;5.30;99.90
24176;DHT22;12324;48.146;11.502;2024-03-02T06:15:15;5.40;99.90
24176;DHT22;12324;48.146;11.502;2024-03-02T06:17:42;5.40;99.90
24176;DHT22;12324;48.146;11.502;2024-03-02T06:20:10;5.40;99.90
24176;DHT22;12324;48.146;11.502;2024-03-02T06:22:38;5.40;99.90
24176;DHT22;12324;48.146;11.502;2024-03-02T06:25:05;5.40;99.90
24176;DHT22;12324;48.146;11.502;2024-03-02T06:27:33;5.40;99.90
24176;DHT22;12324;48.146;11.502;2024-03-02T06:30:00;5.40;99.90
24176;DHT22;12324;48.146;11.502;2024-03-02T06:32:27;5.40;99.90
24176;DHT22;12324;48.146;11.502;2024-03-02T06:34:54;5.40;99.90
24176;DHT22;12324;48.146;11.502;2024-03-02T06:37:21;5.40;99.90
24176;DHT22;12324;48.146;11.502;2024-03-02T06:39:48;5.30;99.90
24176;DHT22;12324;48.146;11.502;2024-03-02T06:42:15;5.30;99.90
24176;DHT22;12324;48.146;11.502;2024-03-02T06:44:42;5.40;99.90
24176;DHT22;12324;48.146;11.502;2024-03-02T06:47:09;5.40;99.90
24176;DHT22;12324;48.146;11.502;2024-03-02T06:49:36;5.40;99.90
24176;DHT22;12324;48.146;11.502;2024-03-02T06:52:03;5.40;99.90
24176;DHT22;12324;48.146;11.502;2024-03-02T06:54:30;5.40;99.90
24176;DHT22;12324;48.146;11.502;2024-03-02T06:56:56;5.40;99.90
24176;DHT22;12324;48.146;11.502;2024-03-02T06:59:23;5.40;99.90
24176;DHT22;12324;48.146;11.502;2024-03-02T07:01:51;5.40;99.90
24176;DHT22;12324;48.146;11.502;2024-03-02T07:04:18;5.30;99.90
24176;DHT22;12324;48.146;11.502;2024-03-02T07:06:45;5.30;99.90
24176;DHT22;12324;48.146;11.502;2024-03-02T07:09:11;5.30;99.90
24176;DHT22;12324;48.146;11.502;2024-03-02T07:11:38;5.30;99.90
24176;DHT22;12324;48.146;11.502;2024-03-02T07:14:06;5.30;99.90
24176;DHT22;12324;48.146;11.502;2024-03-02T07:16:33;5.30;99.90
24176;DHT22;12324;48.146;11.502;2024-03-02T07:19:01;5.10;99.90
24176;DHT22;12324;48.146;11.502;2024-03-02T07:21:29;5.10;99.90
24176;DHT22;12324;48.146;11.502;2024-03-02T07:23:56;5.00;99.90
24176;DHT22;12324;48.146;11.502;2024-03-02T07:26:23;5.10;99.90
24176;DHT22;12324;48.146;11.502;2024-03-02T07:28:53;5.30;99.90
24176;DHT22;12324;48.146;11.502;2024-03-02T07:31:20;5.30;99.90
24176;DHT22;12324;48.146;11.502;2024-03-02T07:33:47;5.40;99.90
24176;DHT22;12324;48.146;11.502;2024-03-02T07:36:15;5.50;99.90
24176;DHT22;12324;48.146;11.502;2024-03-02T07:38:43;5.60;99.90
24176;DHT22;12324;48.146;11.502;2024-03-02T07:41:12;5.70;99.90
24176;DHT22;12324;48.146;11.502;2024-03-02T07:43:41;5.80;99.90
24176;DHT22;12324;48.146;11.502;2024-03-02T07:46:08;5.90;99.90
24176;DHT22;12324;48.146;11.502;2024-03-02T09:36:50;6.00;99.90
24176;DHT22;12324;48.146;11.502;2024-03-02T09:39:18;10.90;99.90
24176;DHT22;12324;48.146;11.502;2024-03-02T10:09:48;10.90;99.90
24176;DHT22;12324;48.146;11.502;2024-03-02T10:12:17;11.40;99.90
24176;DHT22;12324;48.146;11.502;2024-03-02T10:14:45;11.10;99.90
24176;DHT22;12324;48.146;11.502;2024-03-02T10:17:18;10.90;99.90
24176;DHT22;12324;48.146;11.502;2024-03-02T10:19:45;11.10;99.90
24176;DHT22;12324;48.146;11.502;2024-03-02T10:22:11;11.50;99.90
24176;DHT22;12324;48.146;11.502;2024-03-02T10:27:27;11.20;99.90
24176;DHT22;12324;48.146;11.502;2024-03-02T10:29:55;11.00;99.90
24176;DHT22;12324;48.146;11.502;2024-03-02T10:32:22;11.40;99.90
24176;DHT22;12324;48.146;11.502;2024-03-02T10:34:50;11.30;99.90
24176;DHT22;12324;48.146;11.502;2024-03-02T10:37:17;11.40;99.90
24176;DHT22;12324;48.146;11.502;2024-03-02T10:39:46;11.70;99.90
24176;DHT22;12324;48.146;11.502;2024-03-02T10:42:14;11.80;99.90
24176;DHT22;12324;48.146;11.502;2024-03-02T10:44:42;11.50;99.90
24176;DHT22;12324;48.146;11.502;2024-03-02T10:47:12;11.40;99.90
24176;DHT22;12324;48.146;11.502;2024-03-02T10:49:42;11.50;99.90
24176;DHT22;12324;48.146;11.502;2024-03-02T10:52:10;11.70;99.90
24176;DHT22;12324;48.146;11.502;2024-03-02T10:54:37;11.70;99.90
24176;DHT22;12324;48.146;11.502;2024-03-02T10:57:08;11.70;99.90
24176;DHT22;12324;48.146;11.502;2024-03-02T10:59:37;11.90;99.90
24176;DHT22;12324;48.146;11.502;2024-03-02T11:02:12;12.00;99.90
24176;DHT22;12324;48.146;11.502;2024-03-02T11:04:40;12.00;99.90
24176;DHT22;12324;48.146;11.502;2024-03-02T11:12:28;12.20;99.90
24176;DHT22;12324;48.146;11.502;2024-03-02T11:14:56;12.80;99.90
24176;DHT22;12324;48.146;11.502;2024-03-02T11:17:23;12.50;99.90
24176;DHT22;12324;48.146;11.502;2024-03-02T11:19:51;12.30;99.90
24176;DHT22;12324;48.146;11.502;2024-03-02T11:22:19;12.40;99.90
24176;DHT22;12324;48.146;11.502;2024-03-02T11:24:51;12.40;99.90
24176;DHT22;12324;48.146;11.502;2024-03-02T11:33:04;12.50;99.90
24176;DHT22;12324;48.146;11.502;2024-03-02T11:35:47;12.20;99.90
24176;DHT22;12324;48.146;11.502;2024-03-02T11:38:14;12.70;99.90
24176;DHT22;12324;48.146;11.502;2024-03-02T11:45:36;12.70;99.90
24176;DHT22;12324;48.146;11.502;2024-03-02T11:48:09;12.90;99.90
24176;DHT22;12324;48.146;11.502;2024-03-02T11:53:10;12.80;99.90
24176;DHT22;12324;48.146;11.502;2024-03-02T11:55:40;13.00;99.90
24176;DHT22;12324;48.146;11.502;2024-03-02T11:58:14;13.10;99.90
24176;DHT22;12324;48.146;11.502;2024-03-02T12:00:44;13.00;99.90
24176;DHT22;12324;48.146;11.502;2024-03-02T12:15:35;13.30;99.90
24176;DHT22;12324;48.146;11.502;2024-03-02T12:18:06;13.20;99.90
24176;DHT22;12324;48.146;11.502;2024-03-02T12:20:34;13.30;99.90
24176;DHT22;12324;48.146;11.502;2024-03-02T12:30:30;13.60;99.90
24176;DHT22;12324;48.146;11.502;2024-03-02T12:33:05;14.40;99.90
24176;DHT22;12324;48.146;11.502;2024-03-02T12:35:32;14.30;99.90
24176;DHT22;12324;48.146;11.502;2024-03-02T12:37:58;14.30;99.90
24176;DHT22;12324;48.146;11.502;2024-03-02T12:40:25;14.20;99.90
24176;DHT22;12324;48.146;11.502;2024-03-02T12:42:52;14.00;99.90
24176;DHT22;12324;48.146;11.502;2024-03-02T12:45:19;14.10;99.90
24176;DHT22;12324;48.146;11.502;2024-03-02T12:47:51;14.20;99.90
24176;DHT22;12324;48.146;11.502;2024-03-02T12:50:19;14.10;99.90
24176;DHT22;12324;48.146;11.502;2024-03-02T12:55:23;14.20;99.90
24176;DHT22;12324;48.146;11.502;2024-03-02T12:57:51;14.30;99.90
24176;DHT22;12324;48.146;11.502;2024-03-02T13:00:20;14.30;99.90
24176;DHT22;12324;48.146;11.502;2024-03-02T13:02:47;14.60;99.90
24176;DHT22;12324;48.146;11.502;2024-03-02T13:05:15;14.30;99.90
24176;DHT22;12324;48.146;11.502;2024-03-02T13:07:42;14.30;99.90
24176;DHT22;12324;48.146;11.502;2024-03-02T13:20:05;14.40;99.90
24176;DHT22;12324;48.146;11.502;2024-03-02T13:22:37;14.30;99.90
24176;DHT22;12324;48.146;11.502;2024-03-02T13:42:18;15.40;99.90
24176;DHT22;12324;48.146;11.502;2024-03-02T13:44:45;15.30;99.90
24176;DHT22;12324;48.146;11.502;2024-03-02T13:47:17;15.70;99.90
24176;DHT22;12324;48.146;11.502;2024-03-02T13:49:44;16.10;99.90
24176;DHT22;12324;48.146;11.502;2024-03-02T13:52:13;16.20;99.90
24176;DHT22;12324;48.146;11.502;2024-03-02T13:54:41;16.40;99.90
24176;DHT22;12324;48.146;11.502;2024-03-02T13:57:09;15.90;99.90
24176;DHT22;12324;48.146;11.502;2024-03-02T13:59:37;15.90;99.90
24176;DHT22;12324;48.146;11.502;2024-03-02T14:02:05;16.00;99.90
24176;DHT22;12324;48.146;11.502;2024-03-02T14:04:36;15.90;99.90
24176;DHT22;12324;48.146;11.502;2024-03-02T14:09:34;16.40;99.90
24176;DHT22;12324;48.146;11.502;2024-03-02T14:12:02;17.20;99.90
24176;DHT22;12324;48.146;11.502;2024-03-02T14:14:30;16.90;99.90
24176;DHT22;12324;48.146;11.502;2024-03-02T14:16:57;16.40;99.90
24176;DHT22;12324;48.146;11.502;2024-03-02T14:19:27;16.10;99.90
24176;DHT22;12324;48.146;11.502;2024-03-02T14:21:54;16.10;99.90
24176;DHT22;12324;48.146;11.502;2024-03-02T14:24:22;15.90;99.90
24176;DHT22;12324;48.146;11.502;2024-03-02T14:26:52;15.90;99.90
24176;DHT22;12324;48.146;11.502;2024-03-02T14:29:28;16.30;99.90
24176;DHT22;12324;48.146;11.502;2024-03-02T14:31:55;16.50;99.90
24176;DHT22;12324;48.146;11.502;2024-03-02T14:34:22;16.50;99.90
24176;DHT22;12324;48.146;11.502;2024-03-02T14:36:49;15.90;99.90
24176;DHT22;12324;48.146;11.502;2024-03-02T14:39:17;16.50;99.90
24176;DHT22;12324;48.146;11.502;2024-03-02T14:41:45;16.80;99.90
24176;DHT22;12324;48.146;11.502;2024-03-02T14:44:12;17.00;99.90
24176;DHT22;12324;48.146;11.502;2024-03-02T14:49:09;17.30;99.90
24176;DHT22;12324;48.146;11.502;2024-03-02T14:51:37;17.00;99.90
24176;DHT22;12324;48.146;11.502;2024-03-02T14:56:31;17.00;99.90
24176;DHT22;12324;48.146;11.502;2024-03-02T14:58:58;17.20;99.90
24176;DHT22;12324;48.146;11.502;2024-03-02T15:01:25;17.00;99.90
24176;DHT22;12324;48.146;11.502;2024-03-02T15:03:53;16.80;99.90
24176;DHT22;12324;48.146;11.502;2024-03-02T15:06:20;17.30;99.90
24176;DHT22;12324;48.146;11.502;2024-03-02T15:08:47;16.80;99.90
24176;DHT22;12324;48.146;11.502;2024-03-02T15:11:14;16.30;99.90
24176;DHT22;12324;48.146;11.502;2024-03-02T15:13:42;16.50;99.90
24176;DHT22;12324;48.146;11.502;2024-03-02T15:16:09;16.70;99.90
24176;DHT22;12324;48.146;11.502;2024-03-02T15:18:36;16.70;99.90
24176;DHT22;12324;48.146;11.502;2024-03-02T15:21:03;16.40;99.90
24176;DHT22;12324;48.146;11.502;2024-03-02T15:23:29;16.20;99.90
24176;DHT22;12324;48.146;11.502;2024-03-02T15:25:56;16.30;99.90
24176;DHT22;12324;48.146;11.502;2024-03-02T15:28:23;15.80;99.90
24176;DHT22;12324;48.146;11.502;2024-03-02T15:30:53;16.00;99.90
24176;DHT22;12324;48.146;11.502;2024-03-02T15:33:22;15.80;99.90
24176;DHT22;12324;48.146;11.502;2024-03-02T15:35:52;15.90;99.90
24176;DHT22;12324;48.146;11.502;2024-03-02T15:38:22;15.50;99.90
24176;DHT22;12324;48.146;11.502;2024-03-02T15:41:00;15.60;99.90
24176;DHT22;12324;48.146;11.502;2024-03-02T15:43:27;15.20;99.90
24176;DHT22;12324;48.146;11.502;2024-03-02T15:45:53;15.40;99.90
24176;DHT22;12324;48.146;11.502;2024-03-02T15:48:21;14.90;99.90
24176;DHT22;12324;48.146;11.502;2024-03-02T15:50:47;14.50;99.90
24176;DHT22;12324;48.146;11.502;2024-03-02T15:53:14;14.50;99.90
24176;DHT22;12324;48.146;11.502;2024-03-02T15:55:41;14.70;99.90
24176;DHT22;12324;48.146;11.502;2024-03-02T15:58:08;14.40;99.90
24176;DHT22;12324;48.146;11.502;2024-03-02T16:00:35;14.50;99.90
24176;DHT22;12324;48.146;11.502;2024-03-02T16:03:03;14.30;99.90
24176;DHT22;12324;48.146;11.502;2024-03-02T16:05:29;14.10;99.90
24176;DHT22;12324;48.146;11.502;2024-03-02T16:07:56;13.70;99.90
24176;DHT22;12324;48.146;11.502;2024-03-02T16:10:23;13.80;99.90
24176;DHT22;12324;48.146;11.502;2024-03-02T16:12:51;13.60;99.90
24176;DHT22;12324;48.146;11.502;2024-03-02T16:15:20;13.40;99.90
24176;DHT22;12324;48.146;11.502;2024-03-02T16:17:46;13.20;99.90
24176;DHT22;12324;48.146;11.502;2024-03-02T16:20:13;13.10;99.90
24176;DHT22;12324;48.146;11.502;2024-03-02T16:22:40;12.90;99.90
24176;DHT22;12324;48.146;11.502;2024-03-02T16:25:07;12.80;99.90
24176;DHT22;12324;48.146;11.502;2024-03-02T16:27:34;12.60;99.90
24176;DHT22;12324;48.146;11.502;2024-03-02T16:30:01;12.30;99.90
24176;DHT22;12324;48.146;11.502;2024-03-02T16:32:28;12.10;99.90
24176;DHT22;12324;48.146;11.502;2024-03-02T16:34:55;11.90;99.90
24176;DHT22;12324;48.146;11.502;2024-03-02T16:37:22;11.80;99.90
24176;DHT22;12324;48.146;11.502;2024-03-02T16:39:52;11.60;99.90
24176;DHT22;12324;48.146;11.502;2024-03-02T16:42:19;11.40;99.90
24176;DHT22;12324;48.146;11.502;2024-03-02T16:44:50;11.20;99.90
24176;DHT22;12324;48.146;11.502;2024-03-02T16:47:22;11.10;99.90
24176;DHT22;12324;48.146;11.502;2024-03-02T16:49:49;11.00;99.90
24176;DHT22;12324;48.146;11.502;2024-03-02T16:52:17;10.80;99.90
24176;DHT22;12324;48.146;11.502;2024-03-02T16:54:47;10.70;99.90
24176;DHT22;12324;48.146;11.502;2024-03-02T16:57:15;10.60;99.90
24176;DHT22;12324;48.146;11.502;2024-03-02T16:59:43;10.60;99.90
24176;DHT22;12324;48.146;11.502;2024-03-02T17:02:10;10.40;99.90
24176;DHT22;12324;48.146;11.502;2024-03-02T17:04:37;10.30;99.90
24176;DHT22;12324;48.146;11.502;2024-03-02T17:07:05;10.20;99.90
24176;DHT22;12324;48.146;11.502;2024-03-02T17:09:35;10.10;99.90
24176;DHT22;12324;48.146;11.502;2024-03-02T17:14:29;10.10;99.90
24176;DHT22;12324;48.146;11.502;2024-03-02T17:16:56;9.90;99.90
24176;DHT22;12324;48.146;11.502;2024-03-02T17:19:23;9.80;99.90
24176;DHT22;12324;48.146;11.502;2024-03-02T17:21:50;9.80;99.90
24176;DHT22;12324;48.146;11.502;2024-03-02T17:24:16;9.70;99.90
24176;DHT22;12324;48.146;11.502;2024-03-02T17:26:43;9.60;99.90
24176;DHT22;12324;48.146;11.502;2024-03-02T17:29:10;9.60;99.90
24176;DHT22;12324;48.146;11.502;2024-03-02T17:31:37;9.50;99.90
24176;DHT22;12324;48.146;11.502;2024-03-02T17:34:03;9.50;99.90
24176;DHT22;12324;48.146;11.502;2024-03-02T17:36:30;9.40;99.90
24176;DHT22;12324;48.146;11.502;2024-03-02T17:38:57;9.40;99.90
24176;DHT22;12324;48.146;11.502;2024-03-02T17:41:24;9.30;99.90
24176;DHT22;12324;48.146;11.502;2024-03-02T17:43:51;9.20;99.90
24176;DHT22;12324;48.146;11.502;2024-03-02T17:46:18;9.20;99.90
24176;DHT22;12324;48.146;11.502;2024-03-02T17:48:44;9.10;99.90
24176;DHT22;12324;48.146;11.502;2024-03-02T17:51:11;9.10;99.90
24176;DHT22;12324;48.146;11.502;2024-03-02T17:53:38;9.10;99.90
24176;DHT22;12324;48.146;11.502;2024-03-02T17:56:05;9.00;99.90
24176;DHT22;12324;48.146;11.502;2024-03-02T17:58:32;9.00;99.90
24176;DHT22;12324;48.146;11.502;2024-03-02T18:00:59;9.00;99.90
24176;DHT22;12324;48.146;11.502;2024-03-02T18:03:26;8.90;99.90
24176;DHT22;12324;48.146;11.502;2024-03-02T18:05:53;8.90;99.90
24176;DHT22;12324;48.146;11.502;2024-03-02T18:08:20;8.90;99.90
24176;DHT22;12324;48.146;11.502;2024-03-02T18:10:47;8.80;99.90
24176;DHT22;12324;48.146;11.502;2024-03-02T18:13:14;8.80;99.90
24176;DHT22;12324;48.146;11.502;2024-03-02T18:15:41;8.70;99.90
24176;DHT22;12324;48.146;11.502;2024-03-02T18:18:09;8.70;99.90
24176;DHT22;12324;48.146;11.502;2024-03-02T18:20:36;8.60;99.90
24176;DHT22;12324;48.146;11.502;2024-03-02T18:23:05;8.60;99.90
24176;DHT22;12324;48.146;11.502;2024-03-02T18:25:32;8.60;99.90
24176;DHT22;12324;48.146;11.502;2024-03-02T18:27:59;8.50;99.90
24176;DHT22;12324;48.146;11.502;2024-03-02T18:30:25;8.50;99.90
24176;DHT22;12324;48.146;11.502;2024-03-02T18:32:52;8.60;99.90
24176;DHT22;12324;48.146;11.502;2024-03-02T18:35:20;8.40;99.90
24176;DHT22;12324;48.146;11.502;2024-03-02T18:37:47;8.50;99.90
24176;DHT22;12324;48.146;11.502;2024-03-02T18:40:14;8.40;99.90
24176;DHT22;12324;48.146;11.502;2024-03-02T18:42:41;8.30;99.90
24176;DHT22;12324;48.146;11.502;2024-03-02T18:45:08;8.40;99.90
24176;DHT22;12324;48.146;11.502;2024-03-02T18:47:35;8.40;99.90
24176;DHT22;12324;48.146;11.502;2024-03-02T18:50:05;8.40;99.90
24176;DHT22;12324;48.146;11.502;2024-03-02T18:52:35;8.30;99.90
24176;DHT22;12324;48.146;11.502;2024-03-02T18:55:03;8.40;99.90
24176;DHT22;12324;48.146;11.502;2024-03-02T18:57:30;8.30;99.90
24176;DHT22;12324;48.146;11.502;2024-03-02T18:59:57;8.30;99.90
24176;DHT22;12324;48.146;11.502;2024-03-02T19:02:24;8.20;99.90
24176;DHT22;12324;48.146;11.502;2024-03-02T19:04:55;8.20;99.90
24176;DHT22;12324;48.146;11.502;2024-03-02T19:07:21;8.20;99.90
24176;DHT22;12324;48.146;11.502;2024-03-02T19:09:48;8.10;99.90
24176;DHT22;12324;48.146;11.502;2024-03-02T19:12:15;8.10;99.90
24176;DHT22;12324;48.146;11.502;2024-03-02T19:14:42;8.10;99.90
24176;DHT22;12324;48.146;11.502;2024-03-02T19:17:09;8.00;99.90
24176;DHT22;12324;48.146;11.502;2024-03-02T19:19:35;8.00;99.90
24176;DHT22;12324;48.146;11.502;2024-03-02T19:22:03;8.00;99.90
24176;DHT22;12324;48.146;11.502;2024-03-02T19:24:38;8.00;99.90
24176;DHT22;12324;48.146;11.502;2024-03-02T19:27:05;7.90;99.90
24176;DHT22;12324;48.146;11.502;2024-03-02T19:29:32;7.90;99.90
24176;DHT22;12324;48.146;11.502;2024-03-02T19:31:59;7.80;99.90
24176;DHT22;12324;48.146;11.502;2024-03-02T19:34:33;7.80;99.90
24176;DHT22;12324;48.146;11.502;2024-03-02T19:37:00;7.80;99.90
24176;DHT22;12324;48.146;11.502;2024-03-02T19:39:27;7.70;99.90
24176;DHT22;12324;48.146;11.502;2024-03-02T19:41:55;7.70;99.90
24176;DHT22;12324;48.146;11.502;2024-03-02T19:44:22;7.70;99.90
24176;DHT22;12324;48.146;11.502;2024-03-02T19:46:56;7.80;99.90
24176;DHT22;12324;48.146;11.502;2024-03-02T19:49:23;7.80;99.90
24176;DHT22;12324;48.146;11.502;2024-03-02T19:51:50;7.80;99.90
24176;DHT22;12324;48.146;11.502;2024-03-02T19:54:17;7.80;99.90
24176;DHT22;12324;48.146;11.502;2024-03-02T19:56:44;7.80;99.90
24176;DHT22;12324;48.146;11.502;2024-03-02T19:59:12;7.80;99.90
24176;DHT22;12324;48.146;11.502;2024-03-02T20:01:39;7.70;99.90
24176;DHT22;12324;48.146;11.502;2024-03-02T20:04:09;7.70;99.90
24176;DHT22;12324;48.146;11.502;2024-03-02T20:06:36;7.60;99.90
24176;DHT22;12324;48.146;11.502;2024-03-02T20:09:04;7.60;99.90
24176;DHT22;12324;48.146;11.502;2024-03-02T20:11:31;7.60;99.90
24176;DHT22;12324;48.146;11.502;2024-03-02T20:13:59;7.60;99.90
24176;DHT22;12324;48.146;11.502;2024-03-02T20:16:26;7.60;99.90
24176;DHT22;12324;48.146;11.502;2024-03-02T20:18:53;7.50;99.90